sensor_id;sensor_type;location;lat;lon;timestamp;pressure;altitude;pressure_sealevel;temperature;humidity
58373;BME280;44177;43.356;27.672;2023-04-12T00:02:14;96714.97;;;7.22;100.00
58373;BME280;44177;43.356;27.672;2023-04-12T00:04:40;96706.66;;;7.11;100.00
58373;BME280;44177;43.356;27.672;2023-04-12T00:07:05;96711.00;;;7.16;100.00
58373;BME280;44177;43.356;27.672;2023-04-12T00:09:34;96721.84;;;7.16;100.00
58373;BME280;44177;43.356;27.672;2023-04-12T00:12:00;96702.38;;;7.10;100.00
58373;BME280;44177;43.356;27.672;2023-04-12T00:14:27;96714.16;;;7.18;100.00
58373;BME280;44177;43.356;27.672;2023-04-12T00:16:53;96714.91;;;7.19;100.00
58373;BME280;44177;43.356;27.672;2023-04-12T00:19:19;96704.75;;;7.12;100.00
58373;BME280;44177;43.356;27.672;2023-04-12T00:21:45;96704.19;;;7.03;100.00
58373;BME280;44177;43.356;27.672;2023-04-12T00:24:11;96706.19;;;7.06;100.00
58373;BME280;44177;43.356;27.672;2023-04-12T00:26:36;96708.91;;;7.06;100.00
58373;BME280;44177;43.356;27.672;2023-04-12T00:29:02;96701.91;;;7.05;100.00
58373;BME280;44177;43.356;27.672;2023-04-12T00:31:28;96712.81;;;7.08;100.00
58373;BME280;44177;43.356;27.672;2023-04-12T00:33:53;96709.59;;;7.03;100.00
58373;BME280;44177;43.356;27.672;2023-04-12T00:36:19;96713.03;;;7.00;100.00
58373;BME280;44177;43.356;27.672;2023-04-12T00:38:44;96714.16;;;6.99;100.00
58373;BME280;44177;43.356;27.672;2023-04-12T00:41:11;96710.03;;;7.05;100.00
58373;BME280;44177;43.356;27.672;2023-04-12T00:43:36;96704.69;;;6.89;100.00
58373;BME280;44177;43.356;27.672;2023-04-12T00:46:03;96694.94;;;6.84;100.00
58373;BME280;44177;43.356;27.672;2023-04-12T00:48:29;96705.63;;;6.97;100.00
58373;BME280;44177;43.356;27.672;2023-04-12T00:50:55;96696.22;;;6.90;100.00
58373;BME280;44177;43.356;27.672;2023-04-12T00:53:22;96699.53;;;7.03;100.00
58373;BME280;44177;43.356;27.672;2023-04-12T00:55:49;96696.34;;;6.98;100.00
58373;BME280;44177;43.356;27.672;2023-04-12T00:58:15;96701.09;;;7.04;100.00
58373;BME280;44177;43.356;27.672;2023-04-12T01:00:42;96692.91;;;7.01;100.00
58373;BME280;44177;43.356;27.672;2023-04-12T01:03:23;96693.09;;;6.88;100.00
58373;BME280;44177;43.356;27.672;2023-04-12T01:06:28;96693.66;;;6.98;100.00
58373;BME280;44177;43.356;27.672;2023-04-12T01:11:57;96702.63;;;7.02;100.00
58373;BME280;44177;43.356;27.672;2023-04-12T01:14:53;96708.75;;;6.99;100.00
58373;BME280;44177;43.356;27.672;2023-04-12T01:17:25;96699.53;;;7.03;100.00
58373;BME280;44177;43.356;27.672;2023-04-12T01:25:39;96699.53;;;7.03;100.00
58373;BME280;44177;43.356;27.672;2023-04-12T01:28:12;96691.22;;;6.92;100.00
58373;BME280;44177;43.356;27.672;2023-04-12T01:30:40;96675.38;;;6.94;100.00
58373;BME280;44177;43.356;27.672;2023-04-12T01:33:09;96690.25;;;7.04;100.00
58373;BME280;44177;43.356;27.672;2023-04-12T01:35:36;96685.28;;;7.06;100.00
58373;BME280;44177;43.356;27.672;2023-04-12T01:38:02;96675.50;;;7.02;100.00
58373;BME280;44177;43.356;27.672;2023-04-12T01:40:29;96686.47;;;7.09;100.00
58373;BME280;44177;43.356;27.672;2023-04-12T01:43:06;96687.28;;;7.09;100.00
58373;BME280;44177;43.356;27.672;2023-04-12T01:45:32;96691.84;;;7.05;100.00
58373;BME280;44177;43.356;27.672;2023-04-12T01:47:58;96679.84;;;7.06;100.00
58373;BME280;44177;43.356;27.672;2023-04-12T01:50:38;96682.44;;;6.99;100.00
58373;BME280;44177;43.356;27.672;2023-04-12T01:53:38;96688.34;;;7.05;100.00
58373;BME280;44177;43.356;27.672;2023-04-12T01:56:08;96686.78;;;7.04;100.00
58373;BME280;44177;43.356;27.672;2023-04-12T01:58:35;96686.34;;;7.02;100.00
58373;BME280;44177;43.356;27.672;2023-04-12T02:01:01;96689.69;;;6.95;100.00
58373;BME280;44177;43.356;27.672;2023-04-12T02:03:28;96689.38;;;6.97;100.00
58373;BME280;44177;43.356;27.672;2023-04-12T02:05:57;96682.31;;;6.92;100.00
58373;BME280;44177;43.356;27.672;2023-04-12T02:08:23;96695.63;;;7.01;100.00
58373;BME280;44177;43.356;27.672;2023-04-12T02:10:49;96688.22;;;6.98;100.00
58373;BME280;44177;43.356;27.672;2023-04-12T02:13:15;96680.38;;;6.92;100.00
58373;BME280;44177;43.356;27.672;2023-04-12T02:15:42;96684.94;;;6.88;100.00
58373;BME280;44177;43.356;27.672;2023-04-12T02:18:08;96699.78;;;6.94;100.00
58373;BME280;44177;43.356;27.672;2023-04-12T02:20:34;96694.34;;;6.94;100.00
58373;BME280;44177;43.356;27.672;2023-04-12T02:23:00;96683.00;;;6.89;100.00
58373;BME280;44177;43.356;27.672;2023-04-12T02:25:25;96687.22;;;6.86;100.00
58373;BME280;44177;43.356;27.672;2023-04-12T02:27:51;96689.88;;;6.83;100.00
58373;BME280;44177;43.356;27.672;2023-04-12T02:30:17;96692.22;;;6.84;100.00
58373;BME280;44177;43.356;27.672;2023-04-12T02:32:43;96697.50;;;6.77;100.00
58373;BME280;44177;43.356;27.672;2023-04-12T02:35:13;96699.78;;;6.75;100.00
58373;BME280;44177;43.356;27.672;2023-04-12T02:37:42;96688.59;;;6.76;100.00
58373;BME280;44177;43.356;27.672;2023-04-12T02:40:08;96696.66;;;6.73;100.00
58373;BME280;44177;43.356;27.672;2023-04-12T02:42:37;96695.09;;;6.72;100.00
58373;BME280;44177;43.356;27.672;2023-04-12T02:45:03;96705.78;;;6.84;100.00
58373;BME280;44177;43.356;27.672;2023-04-12T02:47:29;96685.09;;;6.76;100.00
58373;BME280;44177;43.356;27.672;2023-04-12T02:49:55;96695.16;;;6.75;100.00
58373;BME280;44177;43.356;27.672;2023-04-12T02:52:21;96710.78;;;6.82;100.00
58373;BME280;44177;43.356;27.672;2023-04-12T02:54:48;96695.34;;;6.86;100.00
58373;BME280;44177;43.356;27.672;2023-04-12T02:57:14;96667.06;;;6.64;100.00
58373;BME280;44177;43.356;27.672;2023-04-12T02:59:40;96699.22;;;6.85;100.00
58373;BME280;44177;43.356;27.672;2023-04-12T03:02:06;96684.69;;;6.74;100.00
58373;BME280;44177;43.356;27.672;2023-04-12T03:04:32;96696.81;;;6.80;100.00
58373;BME280;44177;43.356;27.672;2023-04-12T03:06:58;96697.69;;;6.88;100.00
58373;BME280;44177;43.356;27.672;2023-04-12T03:09:23;96700.22;;;6.97;100.00
58373;BME280;44177;43.356;27.672;2023-04-12T03:11:49;96699.28;;;6.89;100.00
58373;BME280;44177;43.356;27.672;2023-04-12T03:14:15;96701.72;;;6.94;100.00
58373;BME280;44177;43.356;27.672;2023-04-12T03:16:41;96699.28;;;6.89;100.00
58373;BME280;44177;43.356;27.672;2023-04-12T03:19:08;96696.28;;;6.94;100.00
58373;BME280;44177;43.356;27.672;2023-04-12T03:21:33;96705.44;;;6.86;100.00
58373;BME280;44177;43.356;27.672;2023-04-12T03:23:59;96701.28;;;6.92;100.00
58373;BME280;44177;43.356;27.672;2023-04-12T03:26:25;96705.19;;;6.94;100.00
58373;BME280;44177;43.356;27.672;2023-04-12T03:28:59;96705.69;;;7.00;100.00
58373;BME280;44177;43.356;27.672;2023-04-12T03:31:25;96697.91;;;6.99;100.00
58373;BME280;44177;43.356;27.672;2023-04-12T03:33:51;96704.88;;;7.00;100.00
58373;BME280;44177;43.356;27.672;2023-04-12T03:36:17;96699.13;;;7.01;100.00
58373;BME280;44177;43.356;27.672;2023-04-12T03:38:44;96704.75;;;6.92;100.00
58373;BME280;44177;43.356;27.672;2023-04-12T03:41:09;96712.63;;;6.98;100.00
58373;BME280;44177;43.356;27.672;2023-04-12T03:43:35;96681.25;;;6.77;100.00
58373;BME280;44177;43.356;27.672;2023-04-12T03:46:04;96715.34;;;6.98;100.00
58373;BME280;44177;43.356;27.672;2023-04-12T03:48:30;96711.88;;;7.01;100.00
58373;BME280;44177;43.356;27.672;2023-04-12T03:50:56;96712.91;;;6.92;100.00
58373;BME280;44177;43.356;27.672;2023-04-12T03:53:24;96718.88;;;7.02;100.00
58373;BME280;44177;43.356;27.672;2023-04-12T03:55:51;96725.16;;;7.06;100.00
58373;BME280;44177;43.356;27.672;2023-04-12T03:58:18;96720.88;;;7.05;100.00
58373;BME280;44177;43.356;27.672;2023-04-12T04:00:44;96708.69;;;6.95;100.00
58373;BME280;44177;43.356;27.672;2023-04-12T04:03:11;96725.16;;;7.06;100.00
58373;BME280;44177;43.356;27.672;2023-04-12T04:05:37;96718.13;;;7.01;100.00
58373;BME280;44177;43.356;27.672;2023-04-12T04:08:03;96709.03;;;6.93;100.00
58373;BME280;44177;43.356;27.672;2023-04-12T04:10:31;96723.59;;;7.05;100.00
58373;BME280;44177;43.356;27.672;2023-04-12T04:12:56;96731.88;;;6.92;100.00
58373;BME280;44177;43.356;27.672;2023-04-12T04:15:24;96739.06;;;7.04;100.00
58373;BME280;44177;43.356;27.672;2023-04-12T04:17:49;96735.66;;;7.07;100.00
58373;BME280;44177;43.356;27.672;2023-04-12T04:20:15;96728.09;;;6.97;100.00
58373;BME280;44177;43.356;27.672;2023-04-12T04:22:42;96736.53;;;6.92;100.00
58373;BME280;44177;43.356;27.672;2023-04-12T04:25:09;96742.78;;;6.96;100.00
58373;BME280;44177;43.356;27.672;2023-04-12T04:27:35;96732.56;;;7.09;100.00
58373;BME280;44177;43.356;27.672;2023-04-12T04:30:03;96737.28;;;7.12;100.00
58373;BME280;44177;43.356;27.672;2023-04-12T04:32:31;96750.47;;;7.14;100.00
58373;BME280;44177;43.356;27.672;2023-04-12T04:34:57;96738.84;;;7.13;100.00
58373;BME280;44177;43.356;27.672;2023-04-12T04:37:26;96749.97;;;7.08;100.00
58373;BME280;44177;43.356;27.672;2023-04-12T04:39:52;96745.06;;;7.14;100.00
58373;BME280;44177;43.356;27.672;2023-04-12T04:42:18;96742.72;;;7.12;100.00
58373;BME280;44177;43.356;27.672;2023-04-12T04:44:43;96754.00;;;7.14;100.00
58373;BME280;44177;43.356;27.672;2023-04-12T04:47:09;96744.22;;;7.09;100.00
58373;BME280;44177;43.356;27.672;2023-04-12T04:49:35;96750.84;;;7.12;100.00
58373;BME280;44177;43.356;27.672;2023-04-12T04:52:03;96744.69;;;7.15;100.00
58373;BME280;44177;43.356;27.672;2023-04-12T04:54:29;96744.28;;;7.13;100.00
58373;BME280;44177;43.356;27.672;2023-04-12T04:56:57;96751.69;;;7.16;100.00
58373;BME280;44177;43.356;27.672;2023-04-12T04:59:23;96745.56;;;7.19;100.00
58373;BME280;44177;43.356;27.672;2023-04-12T05:01:49;96747.31;;;7.31;100.00
58373;BME280;44177;43.356;27.672;2023-04-12T05:04:16;96719.94;;;7.17;100.00
58373;BME280;44177;43.356;27.672;2023-04-12T05:06:41;96750.53;;;7.37;100.00
58373;BME280;44177;43.356;27.672;2023-04-12T05:09:07;96736.34;;;7.47;100.00
58373;BME280;44177;43.356;27.672;2023-04-12T05:11:32;96746.47;;;7.50;100.00
58373;BME280;44177;43.356;27.672;2023-04-12T05:13:58;96742.97;;;7.50;100.00
58373;BME280;44177;43.356;27.672;2023-04-12T05:16:23;96748.75;;;7.48;100.00
58373;BME280;44177;43.356;27.672;2023-04-12T05:18:49;96760.81;;;7.51;100.00
58373;BME280;44177;43.356;27.672;2023-04-12T05:21:15;96746.59;;;7.57;100.00
58373;BME280;44177;43.356;27.672;2023-04-12T05:23:42;96747.19;;;7.70;100.00
58373;BME280;44177;43.356;27.672;2023-04-12T05:26:08;96746.94;;;7.79;100.00
58373;BME280;44177;43.356;27.672;2023-04-12T05:28:34;96746.34;;;7.89;100.00
58373;BME280;44177;43.356;27.672;2023-04-12T05:30:59;96747.09;;;7.90;100.00
58373;BME280;44177;43.356;27.672;2023-04-12T05:33:24;96732.03;;;7.93;100.00
58373;BME280;44177;43.356;27.672;2023-04-12T05:35:50;96741.44;;;7.99;100.00
58373;BME280;44177;43.356;27.672;2023-04-12T05:38:16;96740.69;;;8.02;100.00
58373;BME280;44177;43.356;27.672;2023-04-12T05:40:41;96737.69;;;8.07;100.00
58373;BME280;44177;43.356;27.672;2023-04-12T05:43:08;96746.97;;;8.06;100.00
58373;BME280;44177;43.356;27.672;2023-04-12T05:45:37;96735.97;;;7.95;99.44
58373;BME280;44177;43.356;27.672;2023-04-12T05:48:03;96744.88;;;7.96;99.69
58373;BME280;44177;43.356;27.672;2023-04-12T05:50:28;96733.47;;;7.86;100.00
58373;BME280;44177;43.356;27.672;2023-04-12T05:52:54;96739.88;;;7.98;100.00
58373;BME280;44177;43.356;27.672;2023-04-12T05:55:19;96745.41;;;8.05;99.99
58373;BME280;44177;43.356;27.672;2023-04-12T05:57:46;96737.69;;;8.07;99.39
58373;BME280;44177;43.356;27.672;2023-04-12T06:00:12;96747.91;;;8.17;99.70
58373;BME280;44177;43.356;27.672;2023-04-12T06:02:40;96740.06;;;8.12;99.68
58373;BME280;44177;43.356;27.672;2023-04-12T06:05:07;96732.97;;;8.04;99.92
58373;BME280;44177;43.356;27.672;2023-04-12T06:07:33;96735.16;;;7.95;100.00
58373;BME280;44177;43.356;27.672;2023-04-12T06:09:58;96743.41;;;8.02;100.00
58373;BME280;44177;43.356;27.672;2023-04-12T06:12:24;96734.06;;;7.99;100.00
58373;BME280;44177;43.356;27.672;2023-04-12T06:14:50;96737.16;;;7.98;99.60
58373;BME280;44177;43.356;27.672;2023-04-12T06:17:15;96739.44;;;7.96;100.00
58373;BME280;44177;43.356;27.672;2023-04-12T06:19:40;96743.69;;;7.93;100.00
58373;BME280;44177;43.356;27.672;2023-04-12T06:22:06;96733.59;;;7.94;100.00
58373;BME280;44177;43.356;27.672;2023-04-12T06:24:32;96741.38;;;7.95;100.00
58373;BME280;44177;43.356;27.672;2023-04-12T06:26:57;96739.97;;;8.05;99.98
58373;BME280;44177;43.356;27.672;2023-04-12T06:29:22;96745.84;;;8.07;98.47
58373;BME280;44177;43.356;27.672;2023-04-12T06:31:48;96742.78;;;8.12;98.03
58373;BME280;44177;43.356;27.672;2023-04-12T06:34:13;96737.53;;;7.96;99.36
58373;BME280;44177;43.356;27.672;2023-04-12T06:36:40;96738.97;;;7.90;100.00
58373;BME280;44177;43.356;27.672;2023-04-12T06:39:06;96751.44;;;7.95;100.00
58373;BME280;44177;43.356;27.672;2023-04-12T06:41:32;96744.88;;;7.96;100.00
58373;BME280;44177;43.356;27.672;2023-04-12T06:43:58;96747.53;;;7.92;100.00
58373;BME280;44177;43.356;27.672;2023-04-12T06:46:27;96742.09;;;7.92;100.00
58373;BME280;44177;43.356;27.672;2023-04-12T06:48:53;96728.00;;;7.83;100.00
58373;BME280;44177;43.356;27.672;2023-04-12T06:51:18;96750.47;;;7.80;100.00
58373;BME280;44177;43.356;27.672;2023-04-12T06:53:44;96745.75;;;7.77;100.00
58373;BME280;44177;43.356;27.672;2023-04-12T06:56:09;96750.09;;;7.58;100.00
58373;BME280;44177;43.356;27.672;2023-04-12T06:58:34;96761.97;;;7.73;100.00
58373;BME280;44177;43.356;27.672;2023-04-12T07:01:06;96750.28;;;7.69;100.00
58373;BME280;44177;43.356;27.672;2023-04-12T07:03:33;96755.88;;;7.80;100.00
58373;BME280;44177;43.356;27.672;2023-04-12T07:05:59;96752.19;;;7.68;100.00
58373;BME280;44177;43.356;27.672;2023-04-12T07:08:30;96752.69;;;7.74;100.00
58373;BME280;44177;43.356;27.672;2023-04-12T07:10:56;96758.13;;;7.74;100.00
58373;BME280;44177;43.356;27.672;2023-04-12T07:13:21;96759.31;;;7.77;100.00
58373;BME280;44177;43.356;27.672;2023-04-12T07:15:48;96745.56;;;7.66;100.00
58373;BME280;44177;43.356;27.672;2023-04-12T07:18:14;96756.75;;;7.61;100.00
58373;BME280;44177;43.356;27.672;2023-04-12T07:20:40;96774.28;;;7.67;100.00
58373;BME280;44177;43.356;27.672;2023-04-12T07:23:05;96763.72;;;7.62;100.00
58373;BME280;44177;43.356;27.672;2023-04-12T07:25:31;96765.13;;;7.75;100.00
58373;BME280;44177;43.356;27.672;2023-04-12T07:27:56;96764.31;;;7.74;100.00
58373;BME280;44177;43.356;27.672;2023-04-12T07:30:22;96779.84;;;7.74;100.00
58373;BME280;44177;43.356;27.672;2023-04-12T07:32:47;96776.81;;;7.79;100.00
58373;BME280;44177;43.356;27.672;2023-04-12T07:35:13;96774.22;;;7.63;100.00
58373;BME280;44177;43.356;27.672;2023-04-12T07:37:39;96775.84;;;7.68;100.00
58373;BME280;44177;43.356;27.672;2023-04-12T07:40:05;96768.75;;;7.59;100.00
58373;BME280;44177;43.356;27.672;2023-04-12T07:42:31;96780.44;;;7.64;100.00
58373;BME280;44177;43.356;27.672;2023-04-12T07:44:56;96775.13;;;7.71;100.00
58373;BME280;44177;43.356;27.672;2023-04-12T07:47:22;96765.06;;;7.71;100.00
58373;BME280;44177;43.356;27.672;2023-04-12T07:49:48;96779.94;;;7.81;100.00
58373;BME280;44177;43.356;27.672;2023-04-12T07:52:13;96762.41;;;7.75;100.00
58373;BME280;44177;43.356;27.672;2023-04-12T07:54:39;96772.94;;;7.80;100.00
58373;BME280;44177;43.356;27.672;2023-04-12T07:57:04;96772.25;;;7.83;100.00
58373;BME280;44177;43.356;27.672;2023-04-12T07:59:30;96782.66;;;7.81;100.00
58373;BME280;44177;43.356;27.672;2023-04-12T08:01:56;96782.00;;;7.88;100.00
58373;BME280;44177;43.356;27.672;2023-04-12T08:04:21;96776.09;;;7.82;100.00
58373;BME280;44177;43.356;27.672;2023-04-12T08:06:47;96765.94;;;7.79;100.00
58373;BME280;44177;43.356;27.672;2023-04-12T08:09:12;96771.50;;;7.86;100.00
58373;BME280;44177;43.356;27.672;2023-04-12T08:11:38;96751.13;;;7.73;100.00
58373;BME280;44177;43.356;27.672;2023-04-12T08:14:03;96782.47;;;7.94;100.00
58373;BME280;44177;43.356;27.672;2023-04-12T08:16:29;96780.06;;;7.88;100.00
58373;BME280;44177;43.356;27.672;2023-04-12T08:18:55;96777.78;;;7.90;100.00
58373;BME280;44177;43.356;27.672;2023-04-12T08:21:21;96778.50;;;7.87;100.00
58373;BME280;44177;43.356;27.672;2023-04-12T08:23:47;96772.25;;;7.83;100.00
58373;BME280;44177;43.356;27.672;2023-04-12T08:26:15;96772.63;;;7.85;100.00
58373;BME280;44177;43.356;27.672;2023-04-12T08:28:41;96784.78;;;7.92;100.00
58373;BME280;44177;43.356;27.672;2023-04-12T08:31:07;96784.47;;;7.97;100.00
58373;BME280;44177;43.356;27.672;2023-04-12T08:33:32;96781.03;;;8.00;100.00
58373;BME280;44177;43.356;27.672;2023-04-12T08:35:58;96782.06;;;8.18;100.00
58373;BME280;44177;43.356;27.672;2023-04-12T08:38:24;96780.31;;;8.30;100.00
58373;BME280;44177;43.356;27.672;2023-04-12T08:40:50;96776.97;;;8.40;99.45
58373;BME280;44177;43.356;27.672;2023-04-12T08:43:17;96780.75;;;8.32;99.78
58373;BME280;44177;43.356;27.672;2023-04-12T08:45:43;96789.94;;;8.24;99.66
58373;BME280;44177;43.356;27.672;2023-04-12T08:48:09;96773.31;;;8.29;99.64
58373;BME280;44177;43.356;27.672;2023-04-12T08:50:35;96771.53;;;8.40;99.02
58373;BME280;44177;43.356;27.672;2023-04-12T08:53:01;96779.31;;;8.42;99.45
58373;BME280;44177;43.356;27.672;2023-04-12T08:55:27;96768.41;;;8.38;98.68
58373;BME280;44177;43.356;27.672;2023-04-12T08:57:53;96782.81;;;8.42;98.96
58373;BME280;44177;43.356;27.672;2023-04-12T09:00:23;96768.25;;;8.27;98.98
58373;BME280;44177;43.356;27.672;2023-04-12T09:02:50;96777.09;;;8.47;99.50
58373;BME280;44177;43.356;27.672;2023-04-12T09:05:16;96787.28;;;8.54;99.57
58373;BME280;44177;43.356;27.672;2023-04-12T09:07:42;96763.19;;;8.52;99.75
58373;BME280;44177;43.356;27.672;2023-04-12T09:10:07;96780.47;;;8.41;97.82
58373;BME280;44177;43.356;27.672;2023-04-12T09:12:33;96781.59;;;8.40;97.84
58373;BME280;44177;43.356;27.672;2023-04-12T09:15:13;96789.28;;;8.34;98.15
58373;BME280;44177;43.356;27.672;2023-04-12T09:17:40;96791.09;;;8.49;97.99
58373;BME280;44177;43.356;27.672;2023-04-12T09:22:41;96783.72;;;8.50;98.00
58373;BME280;44177;43.356;27.672;2023-04-12T09:25:14;96780.31;;;8.57;97.64
58373;BME280;44177;43.356;27.672;2023-04-12T09:27:48;96788.97;;;8.66;97.65
58373;BME280;44177;43.356;27.672;2023-04-12T09:30:16;96785.03;;;8.60;97.33
58373;BME280;44177;43.356;27.672;2023-04-12T09:32:42;96796.19;;;8.51;97.21
58373;BME280;44177;43.356;27.672;2023-04-12T09:35:07;96787.09;;;8.43;96.71
58373;BME280;44177;43.356;27.672;2023-04-12T09:37:33;96801.97;;;8.49;97.73
58373;BME280;44177;43.356;27.672;2023-04-12T09:40:04;96797.56;;;8.68;96.80
58373;BME280;44177;43.356;27.672;2023-04-12T09:42:33;96791.22;;;8.60;97.35
58373;BME280;44177;43.356;27.672;2023-04-12T09:45:22;96798.13;;;8.54;96.21
58373;BME280;44177;43.356;27.672;2023-04-12T09:47:49;96797.38;;;8.53;95.37
58373;BME280;44177;43.356;27.672;2023-04-12T09:50:28;96790.88;;;8.62;94.84
58373;BME280;44177;43.356;27.672;2023-04-12T09:52:54;96802.56;;;8.66;95.03
58373;BME280;44177;43.356;27.672;2023-04-12T09:55:22;96789.31;;;8.61;95.10
58373;BME280;44177;43.356;27.672;2023-04-12T09:57:50;96788.38;;;8.80;95.42
58373;BME280;44177;43.356;27.672;2023-04-12T10:00:17;96792.03;;;8.91;94.35
58373;BME280;44177;43.356;27.672;2023-04-12T10:02:47;96797.28;;;9.07;94.29
58373;BME280;44177;43.356;27.672;2023-04-12T10:05:15;96791.66;;;8.93;93.43
58373;BME280;44177;43.356;27.672;2023-04-12T10:07:43;96781.81;;;8.81;94.25
58373;BME280;44177;43.356;27.672;2023-04-12T10:10:13;96795.25;;;8.70;94.30
58373;BME280;44177;43.356;27.672;2023-04-12T10:12:40;96811.94;;;8.68;94.49
58373;BME280;44177;43.356;27.672;2023-04-12T10:15:08;96789.69;;;8.59;94.33
58373;BME280;44177;43.356;27.672;2023-04-12T10:17:41;96803.78;;;8.68;94.22
58373;BME280;44177;43.356;27.672;2023-04-12T10:20:09;96806.97;;;8.74;95.14
58373;BME280;44177;43.356;27.672;2023-04-12T10:22:38;96802.41;;;8.82;94.18
58373;BME280;44177;43.356;27.672;2023-04-12T10:25:04;96802.44;;;8.85;93.45
58373;BME280;44177;43.356;27.672;2023-04-12T10:27:30;96807.03;;;8.81;94.21
58373;BME280;44177;43.356;27.672;2023-04-12T10:32:44;96795.91;;;8.60;94.44
58373;BME280;44177;43.356;27.672;2023-04-12T10:35:10;96806.38;;;8.61;94.66
58373;BME280;44177;43.356;27.672;2023-04-12T10:38:01;96814.28;;;8.70;94.72
58373;BME280;44177;43.356;27.672;2023-04-12T10:40:28;96809.25;;;8.72;94.43
58373;BME280;44177;43.356;27.672;2023-04-12T10:45:47;96811.03;;;9.22;92.54
58373;BME280;44177;43.356;27.672;2023-04-12T10:51:19;96817.53;;;9.13;92.31
58373;BME280;44177;43.356;27.672;2023-04-12T10:53:50;96799.66;;;9.12;92.25
58373;BME280;44177;43.356;27.672;2023-04-12T10:58:56;96811.94;;;8.99;92.28
58373;BME280;44177;43.356;27.672;2023-04-12T11:01:22;96812.47;;;8.81;92.62
58373;BME280;44177;43.356;27.672;2023-04-12T11:12:18;96826.50;;;8.83;95.01
58373;BME280;44177;43.356;27.672;2023-04-12T11:19:54;96820.19;;;8.76;95.11
58373;BME280;44177;43.356;27.672;2023-04-12T11:22:23;96823.38;;;8.81;95.02
58373;BME280;44177;43.356;27.672;2023-04-12T11:24:51;96820.00;;;8.92;94.13
58373;BME280;44177;43.356;27.672;2023-04-12T11:27:19;96828.75;;;9.08;94.27
58373;BME280;44177;43.356;27.672;2023-04-12T11:29:54;96820.72;;;9.19;93.10
58373;BME280;44177;43.356;27.672;2023-04-12T11:32:22;96833.88;;;9.47;92.14
58373;BME280;44177;43.356;27.672;2023-04-12T11:34:48;96813.44;;;9.64;93.31
58373;BME280;44177;43.356;27.672;2023-04-12T11:37:14;96824.50;;;9.83;91.62
58373;BME280;44177;43.356;27.672;2023-04-12T11:39:43;96807.63;;;10.15;92.21
58373;BME280;44177;43.356;27.672;2023-04-12T11:42:17;96803.41;;;10.17;90.62
58373;BME280;44177;43.356;27.672;2023-04-12T11:44:44;96826.28;;;10.09;89.39
58373;BME280;44177;43.356;27.672;2023-04-12T11:47:18;96814.50;;;9.98;88.80
58373;BME280;44177;43.356;27.672;2023-04-12T11:49:51;96811.28;;;9.85;86.38
58373;BME280;44177;43.356;27.672;2023-04-12T11:52:19;96825.66;;;9.82;87.76
58373;BME280;44177;43.356;27.672;2023-04-12T11:54:49;96824.09;;;9.80;88.42
58373;BME280;44177;43.356;27.672;2023-04-12T11:57:16;96819.50;;;9.88;87.83
58373;BME280;44177;43.356;27.672;2023-04-12T11:59:46;96827.44;;;10.04;88.32
58373;BME280;44177;43.356;27.672;2023-04-12T12:02:14;96819.44;;;10.30;87.20
58373;BME280;44177;43.356;27.672;2023-04-12T12:04:43;96810.00;;;10.68;87.36
58373;BME280;44177;43.356;27.672;2023-04-12T12:07:11;96816.69;;;10.82;86.06
58373;BME280;44177;43.356;27.672;2023-04-12T12:09:38;96820.66;;;10.99;84.95
58373;BME280;44177;43.356;27.672;2023-04-12T12:12:04;96820.59;;;10.84;85.71
58373;BME280;44177;43.356;27.672;2023-04-12T12:14:33;96828.28;;;10.68;84.00
58373;BME280;44177;43.356;27.672;2023-04-12T12:16:59;96823.00;;;10.34;86.87
58373;BME280;44177;43.356;27.672;2023-04-12T12:19:55;96833.00;;;10.22;86.96
58373;BME280;44177;43.356;27.672;2023-04-12T12:22:21;96832.47;;;10.02;88.21
58373;BME280;44177;43.356;27.672;2023-04-12T12:24:56;96851.41;;;9.88;87.84
58373;BME280;44177;43.356;27.672;2023-04-12T12:29:54;96821.50;;;9.54;87.41
58373;BME280;44177;43.356;27.672;2023-04-12T12:32:21;96845.75;;;9.32;87.40
58373;BME280;44177;43.356;27.672;2023-04-12T12:34:54;96851.53;;;9.27;87.50
58373;BME280;44177;43.356;27.672;2023-04-12T12:37:24;96847.97;;;9.23;88.45
58373;BME280;44177;43.356;27.672;2023-04-12T12:40:10;96861.78;;;9.07;87.35
58373;BME280;44177;43.356;27.672;2023-04-12T12:42:50;96841.38;;;8.93;87.17
58373;BME280;44177;43.356;27.672;2023-04-12T12:45:17;96844.91;;;8.94;88.12
58373;BME280;44177;43.356;27.672;2023-04-12T12:47:57;96845.25;;;9.23;88.24
58373;BME280;44177;43.356;27.672;2023-04-12T12:50:27;96842.63;;;9.30;87.97
58373;BME280;44177;43.356;27.672;2023-04-12T12:52:54;96848.09;;;9.33;87.70
58373;BME280;44177;43.356;27.672;2023-04-12T12:55:21;96836.38;;;9.26;88.76
58373;BME280;44177;43.356;27.672;2023-04-12T12:57:48;96852.19;;;9.51;87.51
58373;BME280;44177;43.356;27.672;2023-04-12T13:00:15;96841.69;;;9.53;87.51
58373;BME280;44177;43.356;27.672;2023-04-12T13:02:41;96839.41;;;9.55;87.62
58373;BME280;44177;43.356;27.672;2023-04-12T13:05:07;96840.97;;;9.56;87.90
58373;BME280;44177;43.356;27.672;2023-04-12T13:07:33;96835.06;;;9.50;87.11
58373;BME280;44177;43.356;27.672;2023-04-12T13:09:59;96839.06;;;9.60;87.72
58373;BME280;44177;43.356;27.672;2023-04-12T13:12:25;96848.50;;;9.70;88.07
58373;BME280;44177;43.356;27.672;2023-04-12T13:14:51;96839.06;;;9.60;86.38
58373;BME280;44177;43.356;27.672;2023-04-12T13:17:16;96843.72;;;9.59;85.16
58373;BME280;44177;43.356;27.672;2023-04-12T13:19:47;96846.13;;;9.68;85.89
58373;BME280;44177;43.356;27.672;2023-04-12T13:22:13;96855.88;;;9.69;85.54
58373;BME280;44177;43.356;27.672;2023-04-12T13:24:38;96838.47;;;9.77;86.72
58373;BME280;44177;43.356;27.672;2023-04-12T13:27:04;96859.16;;;9.86;86.69
58373;BME280;44177;43.356;27.672;2023-04-12T13:29:29;96853.22;;;9.76;86.08
58373;BME280;44177;43.356;27.672;2023-04-12T13:31:55;96860.72;;;9.87;87.35
58373;BME280;44177;43.356;27.672;2023-04-12T13:34:21;96857.78;;;10.06;85.99